KMTO Airport (Coles County Memorial) Information

FAA: MTO - ICAO: KMTO

KMTO Airport Location

State Illinois
County Coles
City Mattoon/Charleston
KMTO Airport is 4 miles east of Mattoon/Charleston, IL.
Latitude 39-28-40.4000N
Longitude 088-16-47.9000W
Elevation 722ft

KMTO Airport METARs

METAR KMTO 071953Z AUTO 02006KT 10SM CLR 09/04 A3026 RMK AO2 SLP250 T00890044
Altimeter 30.26"
Temperature 8.9°C (48.0°F)
Wind 20° at 6KT
Clouds Skies are clear.
Visibility 10.0mi
Time observed: 2022-12-07T19:53:00Z

KMTO Airport Details

Status Operational
Activation October 1951
Ownership Public
Usage Public
Chart ST LOUIS
ATC on-site No
Beacon schedule sunset-sunrise
Beacon color clear green

KMTO Airport Contacts

Owner COLES COUNTY AIRPORT AUTHORITY
Owner address 432 AIRPORT ROAD, MATTOON, IL 61938
Owner phone 217-234-7120
Manager DAVID C. GILLESPIE
Manager address 2561 NORTH 2950TH ROAD, MARSEILLES, IL 61341
Manager phone 815-795-2539

KMTO Airport (Coles County Memorial) Radio Frequencies

KMTO (Airport) Radio Frequencies

UNICOM 122.7
Common traffic advisory frequency (CTAF) 122.7